sensor_id;sensor_type;location;lat;lon;timestamp;P1;durP1;ratioP1;P2;durP2;ratioP2
14080;SDS011;7116;52.152;5.392;2023-04-24T00:00:49;2.60;;;2.30;;
14080;SDS011;7116;52.152;5.392;2023-04-24T00:03:15;2.80;;;2.17;;
14080;SDS011;7116;52.152;5.392;2023-04-24T00:05:41;3.23;;;2.77;;
14080;SDS011;7116;52.152;5.392;2023-04-24T00:08:06;2.40;;;2.20;;
14080;SDS011;7116;52.152;5.392;2023-04-24T00:10:32;2.53;;;2.33;;
14080;SDS011;7116;52.152;5.392;2023-04-24T00:12:57;2.53;;;2.33;;
14080;SDS011;7116;52.152;5.392;2023-04-24T00:15:22;2.23;;;1.70;;
14080;SDS011;7116;52.152;5.392;2023-04-24T00:17:47;3.20;;;2.33;;
14080;SDS011;7116;52.152;5.392;2023-04-24T00:20:12;2.43;;;2.23;;
14080;SDS011;7116;52.152;5.392;2023-04-24T00:22:39;3.25;;;2.28;;
14080;SDS011;7116;52.152;5.392;2023-04-24T00:52:32;3.00;;;2.78;;
14080;SDS011;7116;52.152;5.392;2023-04-24T00:54:57;3.50;;;3.20;;
14080;SDS011;7116;52.152;5.392;2023-04-24T00:57:22;2.92;;;2.38;;
14080;SDS011;7116;52.152;5.392;2023-04-24T00:59:48;2.10;;;1.90;;
14080;SDS011;7116;52.152;5.392;2023-04-24T01:02:14;3.37;;;3.07;;
14080;SDS011;7116;52.152;5.392;2023-04-24T01:04:40;3.10;;;2.80;;
14080;SDS011;7116;52.152;5.392;2023-04-24T01:07:05;4.17;;;3.17;;
14080;SDS011;7116;52.152;5.392;2023-04-24T01:09:36;2.70;;;2.20;;
14080;SDS011;7116;52.152;5.392;2023-04-24T01:12:02;3.60;;;2.95;;
14080;SDS011;7116;52.152;5.392;2023-04-24T01:14:28;3.00;;;2.70;;
14080;SDS011;7116;52.152;5.392;2023-04-24T01:16:53;3.17;;;2.87;;
14080;SDS011;7116;52.152;5.392;2023-04-24T01:19:18;3.17;;;2.70;;
14080;SDS011;7116;52.152;5.392;2023-04-24T01:21:43;3.50;;;3.20;;
14080;SDS011;7116;52.152;5.392;2023-04-24T01:24:10;4.05;;;3.67;;
14080;SDS011;7116;52.152;5.392;2023-04-24T01:26:35;3.57;;;3.20;;
14080;SDS011;7116;52.152;5.392;2023-04-24T01:29:00;4.20;;;3.33;;
14080;SDS011;7116;52.152;5.392;2023-04-24T01:31:26;3.53;;;3.17;;
14080;SDS011;7116;52.152;5.392;2023-04-24T01:33:51;4.90;;;3.63;;
14080;SDS011;7116;52.152;5.392;2023-04-24T01:36:17;5.22;;;3.30;;
14080;SDS011;7116;52.152;5.392;2023-04-24T01:38:43;4.53;;;3.90;;
14080;SDS011;7116;52.152;5.392;2023-04-24T01:41:08;4.22;;;3.40;;
14080;SDS011;7116;52.152;5.392;2023-04-24T01:43:33;4.27;;;3.87;;
14080;SDS011;7116;52.152;5.392;2023-04-24T01:46:01;5.72;;;3.60;;
14080;SDS011;7116;52.152;5.392;2023-04-24T01:48:26;5.13;;;3.13;;
14080;SDS011;7116;52.152;5.392;2023-04-24T01:50:51;4.90;;;3.57;;
14080;SDS011;7116;52.152;5.392;2023-04-24T01:53:17;5.90;;;3.30;;
14080;SDS011;7116;52.152;5.392;2023-04-24T01:55:42;4.70;;;3.37;;
14080;SDS011;7116;52.152;5.392;2023-04-24T01:58:07;4.53;;;3.37;;
14080;SDS011;7116;52.152;5.392;2023-04-24T02:00:33;4.40;;;3.60;;
14080;SDS011;7116;52.152;5.392;2023-04-24T02:02:58;5.13;;;3.80;;
14080;SDS011;7116;52.152;5.392;2023-04-24T02:05:23;3.97;;;3.40;;
14080;SDS011;7116;52.152;5.392;2023-04-24T02:07:48;4.40;;;3.73;;
14080;SDS011;7116;52.152;5.392;2023-04-24T02:10:13;6.77;;;3.93;;
14080;SDS011;7116;52.152;5.392;2023-04-24T02:12:39;4.03;;;3.43;;
14080;SDS011;7116;52.152;5.392;2023-04-24T02:15:04;4.20;;;3.33;;
14080;SDS011;7116;52.152;5.392;2023-04-24T02:17:30;4.68;;;3.72;;
14080;SDS011;7116;52.152;5.392;2023-04-24T02:19:55;6.67;;;3.77;;
14080;SDS011;7116;52.152;5.392;2023-04-24T02:22:21;4.40;;;3.40;;
14080;SDS011;7116;52.152;5.392;2023-04-24T02:24:46;4.60;;;3.93;;
14080;SDS011;7116;52.152;5.392;2023-04-24T02:27:11;3.97;;;3.57;;
14080;SDS011;7116;52.152;5.392;2023-04-24T02:29:36;4.83;;;3.13;;
14080;SDS011;7116;52.152;5.392;2023-04-24T02:32:01;4.30;;;3.63;;
14080;SDS011;7116;52.152;5.392;2023-04-24T02:34:27;4.50;;;3.57;;
14080;SDS011;7116;52.152;5.392;2023-04-24T02:36:52;4.93;;;3.77;;
14080;SDS011;7116;52.152;5.392;2023-04-24T02:39:18;4.75;;;4.00;;
14080;SDS011;7116;52.152;5.392;2023-04-24T02:41:44;5.57;;;3.43;;
14080;SDS011;7116;52.152;5.392;2023-04-24T02:44:09;4.60;;;4.07;;
14080;SDS011;7116;52.152;5.392;2023-04-24T02:46:34;3.77;;;3.30;;
14080;SDS011;7116;52.152;5.392;2023-04-24T02:49:00;4.00;;;3.50;;
14080;SDS011;7116;52.152;5.392;2023-04-24T02:51:25;4.13;;;3.07;;
14080;SDS011;7116;52.152;5.392;2023-04-24T02:53:50;4.50;;;3.17;;
14080;SDS011;7116;52.152;5.392;2023-04-24T02:56:15;3.97;;;3.40;;
14080;SDS011;7116;52.152;5.392;2023-04-24T02:58:40;5.23;;;3.47;;
14080;SDS011;7116;52.152;5.392;2023-04-24T03:01:07;5.73;;;3.60;;
14080;SDS011;7116;52.152;5.392;2023-04-24T03:03:32;4.90;;;3.65;;
14080;SDS011;7116;52.152;5.392;2023-04-24T03:05:57;4.27;;;3.80;;
14080;SDS011;7116;52.152;5.392;2023-04-24T03:08:23;5.70;;;4.10;;
14080;SDS011;7116;52.152;5.392;2023-04-24T03:10:48;3.23;;;2.77;;
14080;SDS011;7116;52.152;5.392;2023-04-24T03:13:15;3.55;;;3.13;;
14080;SDS011;7116;52.152;5.392;2023-04-24T03:15:40;3.43;;;3.03;;
14080;SDS011;7116;52.152;5.392;2023-04-24T03:18:05;3.37;;;3.00;;
14080;SDS011;7116;52.152;5.392;2023-04-24T03:20:30;5.27;;;3.30;;
14080;SDS011;7116;52.152;5.392;2023-04-24T03:22:56;3.27;;;2.90;;
14080;SDS011;7116;52.152;5.392;2023-04-24T03:25:22;2.97;;;2.67;;
14080;SDS011;7116;52.152;5.392;2023-04-24T03:27:47;3.77;;;3.43;;
14080;SDS011;7116;52.152;5.392;2023-04-24T03:30:12;3.57;;;3.20;;
14080;SDS011;7116;52.152;5.392;2023-04-24T03:32:37;3.73;;;2.67;;
14080;SDS011;7116;52.152;5.392;2023-04-24T03:35:04;4.27;;;2.93;;
14080;SDS011;7116;52.152;5.392;2023-04-24T03:37:29;3.00;;;2.50;;
14080;SDS011;7116;52.152;5.392;2023-04-24T03:39:55;3.57;;;2.97;;
14080;SDS011;7116;52.152;5.392;2023-04-24T03:42:20;7.77;;;3.10;;
14080;SDS011;7116;52.152;5.392;2023-04-24T03:44:45;4.50;;;2.70;;
14080;SDS011;7116;52.152;5.392;2023-04-24T03:47:11;3.93;;;2.73;;
14080;SDS011;7116;52.152;5.392;2023-04-24T03:49:36;2.90;;;2.60;;
14080;SDS011;7116;52.152;5.392;2023-04-24T03:52:01;2.57;;;2.37;;
14080;SDS011;7116;52.152;5.392;2023-04-24T03:54:27;3.93;;;3.10;;
14080;SDS011;7116;52.152;5.392;2023-04-24T03:56:52;3.42;;;2.97;;
14080;SDS011;7116;52.152;5.392;2023-04-24T03:59:17;3.53;;;2.83;;
14080;SDS011;7116;52.152;5.392;2023-04-24T04:01:43;3.13;;;2.53;;
14080;SDS011;7116;52.152;5.392;2023-04-24T04:04:08;3.63;;;3.27;;
14080;SDS011;7116;52.152;5.392;2023-04-24T04:06:33;3.50;;;2.77;;
14080;SDS011;7116;52.152;5.392;2023-04-24T04:08:59;4.00;;;3.03;;
14080;SDS011;7116;52.152;5.392;2023-04-24T04:11:26;3.37;;;3.07;;
14080;SDS011;7116;52.152;5.392;2023-04-24T04:13:51;3.30;;;2.65;;
14080;SDS011;7116;52.152;5.392;2023-04-24T04:16:16;3.30;;;2.73;;
14080;SDS011;7116;52.152;5.392;2023-04-24T04:18:42;2.90;;;2.60;;
14080;SDS011;7116;52.152;5.392;2023-04-24T04:21:07;3.47;;;2.70;;
14080;SDS011;7116;52.152;5.392;2023-04-24T04:23:32;2.67;;;2.27;;
14080;SDS011;7116;52.152;5.392;2023-04-24T04:25:58;2.53;;;2.27;;
14080;SDS011;7116;52.152;5.392;2023-04-24T04:28:23;2.42;;;2.10;;
14080;SDS011;7116;52.152;5.392;2023-04-24T04:30:49;3.07;;;2.73;;
14080;SDS011;7116;52.152;5.392;2023-04-24T04:33:18;2.40;;;2.20;;
14080;SDS011;7116;52.152;5.392;2023-04-24T04:35:43;2.97;;;2.67;;
14080;SDS011;7116;52.152;5.392;2023-04-24T04:38:09;3.47;;;3.17;;
14080;SDS011;7116;52.152;5.392;2023-04-24T04:40:35;3.13;;;2.80;;
14080;SDS011;7116;52.152;5.392;2023-04-24T04:43:01;2.80;;;2.60;;
14080;SDS011;7116;52.152;5.392;2023-04-24T04:45:27;3.78;;;2.80;;
14080;SDS011;7116;52.152;5.392;2023-04-24T04:47:55;3.53;;;3.03;;
14080;SDS011;7116;52.152;5.392;2023-04-24T04:50:22;4.20;;;3.08;;
14080;SDS011;7116;52.152;5.392;2023-04-24T04:52:47;3.43;;;3.07;;
14080;SDS011;7116;52.152;5.392;2023-04-24T04:55:13;3.63;;;3.23;;
14080;SDS011;7116;52.152;5.392;2023-04-24T04:57:38;3.63;;;3.00;;
14080;SDS011;7116;52.152;5.392;2023-04-24T05:00:03;8.07;;;3.57;;
14080;SDS011;7116;52.152;5.392;2023-04-24T05:02:29;3.80;;;3.00;;
14080;SDS011;7116;52.152;5.392;2023-04-24T05:04:54;3.70;;;2.93;;
14080;SDS011;7116;52.152;5.392;2023-04-24T05:07:19;3.80;;;2.58;;
14080;SDS011;7116;52.152;5.392;2023-04-24T05:09:45;7.03;;;3.53;;
14080;SDS011;7116;52.152;5.392;2023-04-24T05:12:10;5.23;;;4.03;;
14080;SDS011;7116;52.152;5.392;2023-04-24T05:14:35;4.53;;;3.33;;
14080;SDS011;7116;52.152;5.392;2023-04-24T05:17:00;6.37;;;3.83;;
14080;SDS011;7116;52.152;5.392;2023-04-24T05:19:26;6.07;;;4.23;;
14080;SDS011;7116;52.152;5.392;2023-04-24T05:21:51;6.13;;;4.87;;
14080;SDS011;7116;52.152;5.392;2023-04-24T05:24:19;5.15;;;4.00;;
14080;SDS011;7116;52.152;5.392;2023-04-24T05:26:45;6.17;;;4.17;;
14080;SDS011;7116;52.152;5.392;2023-04-24T05:29:10;6.20;;;4.82;;
14080;SDS011;7116;52.152;5.392;2023-04-24T05:31:36;4.80;;;4.30;;
14080;SDS011;7116;52.152;5.392;2023-04-24T05:34:04;7.22;;;4.30;;
14080;SDS011;7116;52.152;5.392;2023-04-24T05:36:30;8.52;;;4.28;;
14080;SDS011;7116;52.152;5.392;2023-04-24T05:38:56;5.33;;;4.43;;
14080;SDS011;7116;52.152;5.392;2023-04-24T05:41:21;6.05;;;3.95;;
14080;SDS011;7116;52.152;5.392;2023-04-24T05:43:47;4.73;;;4.00;;
14080;SDS011;7116;52.152;5.392;2023-04-24T05:46:12;5.23;;;4.07;;
14080;SDS011;7116;52.152;5.392;2023-04-24T05:48:37;5.63;;;3.93;;
14080;SDS011;7116;52.152;5.392;2023-04-24T05:51:03;4.97;;;4.10;;
14080;SDS011;7116;52.152;5.392;2023-04-24T05:53:28;5.60;;;3.77;;
14080;SDS011;7116;52.152;5.392;2023-04-24T05:55:53;4.27;;;3.50;;
14080;SDS011;7116;52.152;5.392;2023-04-24T05:58:18;3.93;;;3.00;;
14080;SDS011;7116;52.152;5.392;2023-04-24T06:00:46;5.85;;;3.42;;
14080;SDS011;7116;52.152;5.392;2023-04-24T06:03:12;3.67;;;2.80;;
14080;SDS011;7116;52.152;5.392;2023-04-24T06:05:37;3.43;;;2.40;;
14080;SDS011;7116;52.152;5.392;2023-04-24T06:08:02;4.53;;;3.17;;
14080;SDS011;7116;52.152;5.392;2023-04-24T06:10:27;3.63;;;2.53;;
14080;SDS011;7116;52.152;5.392;2023-04-24T06:12:52;2.97;;;2.37;;
14080;SDS011;7116;52.152;5.392;2023-04-24T06:15:21;3.65;;;2.75;;
14080;SDS011;7116;52.152;5.392;2023-04-24T06:17:46;4.93;;;2.23;;
14080;SDS011;7116;52.152;5.392;2023-04-24T06:20:11;2.87;;;2.17;;
14080;SDS011;7116;52.152;5.392;2023-04-24T06:22:37;6.57;;;2.40;;
14080;SDS011;7116;52.152;5.392;2023-04-24T06:25:06;3.20;;;2.50;;
14080;SDS011;7116;52.152;5.392;2023-04-24T06:27:32;2.75;;;2.10;;
14080;SDS011;7116;52.152;5.392;2023-04-24T06:29:57;3.30;;;2.80;;
14080;SDS011;7116;52.152;5.392;2023-04-24T06:32:22;6.87;;;2.13;;
14080;SDS011;7116;52.152;5.392;2023-04-24T06:34:48;4.80;;;2.75;;
14080;SDS011;7116;52.152;5.392;2023-04-24T06:37:14;5.17;;;2.70;;
14080;SDS011;7116;52.152;5.392;2023-04-24T06:39:40;4.55;;;3.40;;
14080;SDS011;7116;52.152;5.392;2023-04-24T06:42:05;4.03;;;3.23;;
14080;SDS011;7116;52.152;5.392;2023-04-24T06:44:30;7.83;;;4.07;;
14080;SDS011;7116;52.152;5.392;2023-04-24T06:46:56;8.43;;;4.90;;
14080;SDS011;7116;52.152;5.392;2023-04-24T06:49:21;7.70;;;5.20;;
14080;SDS011;7116;52.152;5.392;2023-04-24T06:51:46;7.87;;;5.17;;
14080;SDS011;7116;52.152;5.392;2023-04-24T06:54:11;9.90;;;6.60;;
14080;SDS011;7116;52.152;5.392;2023-04-24T06:56:36;10.77;;;6.00;;
14080;SDS011;7116;52.152;5.392;2023-04-24T06:59:02;13.27;;;7.80;;
14080;SDS011;7116;52.152;5.392;2023-04-24T07:01:29;10.53;;;6.67;;
14080;SDS011;7116;52.152;5.392;2023-04-24T07:03:55;10.90;;;6.32;;
14080;SDS011;7116;52.152;5.392;2023-04-24T07:06:20;12.70;;;6.17;;
14080;SDS011;7116;52.152;5.392;2023-04-24T07:08:47;12.88;;;6.13;;
14080;SDS011;7116;52.152;5.392;2023-04-24T07:11:12;10.33;;;7.37;;
14080;SDS011;7116;52.152;5.392;2023-04-24T07:13:38;10.80;;;6.30;;
14080;SDS011;7116;52.152;5.392;2023-04-24T07:16:06;9.57;;;6.10;;
14080;SDS011;7116;52.152;5.392;2023-04-24T07:18:31;12.07;;;6.40;;
14080;SDS011;7116;52.152;5.392;2023-04-24T07:20:57;9.47;;;6.40;;
14080;SDS011;7116;52.152;5.392;2023-04-24T07:23:22;13.43;;;5.73;;
14080;SDS011;7116;52.152;5.392;2023-04-24T07:25:47;10.03;;;5.60;;
14080;SDS011;7116;52.152;5.392;2023-04-24T07:28:12;11.53;;;5.70;;
14080;SDS011;7116;52.152;5.392;2023-04-24T07:30:38;12.87;;;6.23;;
14080;SDS011;7116;52.152;5.392;2023-04-24T07:33:03;12.87;;;6.37;;
14080;SDS011;7116;52.152;5.392;2023-04-24T07:35:28;11.17;;;5.90;;
14080;SDS011;7116;52.152;5.392;2023-04-24T07:37:53;14.73;;;5.50;;
14080;SDS011;7116;52.152;5.392;2023-04-24T07:40:19;10.63;;;5.93;;
14080;SDS011;7116;52.152;5.392;2023-04-24T07:42:44;12.05;;;5.47;;
14080;SDS011;7116;52.152;5.392;2023-04-24T07:45:09;13.77;;;5.77;;
14080;SDS011;7116;52.152;5.392;2023-04-24T07:47:34;11.57;;;6.07;;
14080;SDS011;7116;52.152;5.392;2023-04-24T07:50:01;12.07;;;5.85;;
14080;SDS011;7116;52.152;5.392;2023-04-24T07:52:26;10.57;;;6.20;;
14080;SDS011;7116;52.152;5.392;2023-04-24T07:54:51;8.53;;;5.27;;
14080;SDS011;7116;52.152;5.392;2023-04-24T07:57:23;16.27;;;6.30;;
14080;SDS011;7116;52.152;5.392;2023-04-24T07:59:48;12.80;;;6.13;;
14080;SDS011;7116;52.152;5.392;2023-04-24T08:02:13;10.10;;;6.17;;
14080;SDS011;7116;52.152;5.392;2023-04-24T08:04:39;12.30;;;5.60;;
14080;SDS011;7116;52.152;5.392;2023-04-24T08:07:04;8.73;;;5.00;;
14080;SDS011;7116;52.152;5.392;2023-04-24T08:09:30;9.87;;;5.50;;
14080;SDS011;7116;52.152;5.392;2023-04-24T08:11:55;11.77;;;5.30;;
14080;SDS011;7116;52.152;5.392;2023-04-24T08:14:21;10.97;;;4.80;;
14080;SDS011;7116;52.152;5.392;2023-04-24T08:16:46;9.80;;;4.60;;
14080;SDS011;7116;52.152;5.392;2023-04-24T08:19:11;13.43;;;4.80;;
14080;SDS011;7116;52.152;5.392;2023-04-24T08:21:37;12.40;;;4.80;;
14080;SDS011;7116;52.152;5.392;2023-04-24T08:24:02;10.20;;;4.67;;
14080;SDS011;7116;52.152;5.392;2023-04-24T08:26:30;11.65;;;4.18;;
14080;SDS011;7116;52.152;5.392;2023-04-24T08:28:55;10.27;;;4.73;;
14080;SDS011;7116;52.152;5.392;2023-04-24T08:31:20;10.97;;;4.63;;
14080;SDS011;7116;52.152;5.392;2023-04-24T08:33:46;10.80;;;3.73;;
14080;SDS011;7116;52.152;5.392;2023-04-24T08:36:12;17.27;;;3.97;;
14080;SDS011;7116;52.152;5.392;2023-04-24T08:38:37;6.80;;;3.27;;
14080;SDS011;7116;52.152;5.392;2023-04-24T08:41:05;8.73;;;3.78;;
14080;SDS011;7116;52.152;5.392;2023-04-24T08:43:31;8.82;;;3.85;;
14080;SDS011;7116;52.152;5.392;2023-04-24T08:45:57;13.83;;;3.50;;
14080;SDS011;7116;52.152;5.392;2023-04-24T08:48:24;13.57;;;4.85;;
14080;SDS011;7116;52.152;5.392;2023-04-24T08:50:50;12.63;;;4.00;;
14080;SDS011;7116;52.152;5.392;2023-04-24T08:53:15;14.03;;;3.97;;
14080;SDS011;7116;52.152;5.392;2023-04-24T08:55:41;9.33;;;3.83;;
14080;SDS011;7116;52.152;5.392;2023-04-24T08:58:08;12.65;;;3.78;;
14080;SDS011;7116;52.152;5.392;2023-04-24T09:00:33;11.27;;;3.37;;
14080;SDS011;7116;52.152;5.392;2023-04-24T09:03:01;14.50;;;3.63;;
14080;SDS011;7116;52.152;5.392;2023-04-24T09:05:27;12.70;;;3.50;;
14080;SDS011;7116;52.152;5.392;2023-04-24T09:07:56;8.85;;;3.33;;
14080;SDS011;7116;52.152;5.392;2023-04-24T09:10:22;17.63;;;3.72;;
14080;SDS011;7116;52.152;5.392;2023-04-24T09:12:48;14.95;;;3.88;;
14080;SDS011;7116;52.152;5.392;2023-04-24T09:15:14;11.57;;;3.50;;
14080;SDS011;7116;52.152;5.392;2023-04-24T09:17:40;10.07;;;3.37;;
14080;SDS011;7116;52.152;5.392;2023-04-24T09:20:05;9.67;;;2.90;;
14080;SDS011;7116;52.152;5.392;2023-04-24T09:22:31;10.77;;;3.10;;
14080;SDS011;7116;52.152;5.392;2023-04-24T09:24:59;10.37;;;3.20;;
14080;SDS011;7116;52.152;5.392;2023-04-24T09:27:27;11.57;;;3.35;;
14080;SDS011;7116;52.152;5.392;2023-04-24T09:29:53;13.48;;;3.70;;
14080;SDS011;7116;52.152;5.392;2023-04-24T09:32:19;9.30;;;3.73;;
14080;SDS011;7116;52.152;5.392;2023-04-24T09:34:47;13.63;;;3.33;;
14080;SDS011;7116;52.152;5.392;2023-04-24T09:37:15;12.18;;;2.90;;
14080;SDS011;7116;52.152;5.392;2023-04-24T09:40:06;12.45;;;3.63;;
14080;SDS011;7116;52.152;5.392;2023-04-24T09:42:32;8.10;;;3.17;;
14080;SDS011;7116;52.152;5.392;2023-04-24T09:44:57;9.63;;;3.17;;
14080;SDS011;7116;52.152;5.392;2023-04-24T09:47:22;8.23;;;3.20;;
14080;SDS011;7116;52.152;5.392;2023-04-24T09:49:47;9.33;;;2.90;;
14080;SDS011;7116;52.152;5.392;2023-04-24T09:52:13;11.60;;;3.67;;
14080;SDS011;7116;52.152;5.392;2023-04-24T09:54:40;13.82;;;3.42;;
14080;SDS011;7116;52.152;5.392;2023-04-24T09:57:07;8.40;;;3.37;;
14080;SDS011;7116;52.152;5.392;2023-04-24T09:59:35;12.18;;;3.47;;
14080;SDS011;7116;52.152;5.392;2023-04-24T10:02:16;12.13;;;3.25;;
14080;SDS011;7116;52.152;5.392;2023-04-24T10:04:53;8.85;;;3.10;;
14080;SDS011;7116;52.152;5.392;2023-04-24T10:07:21;8.40;;;3.20;;
14080;SDS011;7116;52.152;5.392;2023-04-24T10:09:46;10.00;;;3.07;;
14080;SDS011;7116;52.152;5.392;2023-04-24T10:12:13;7.68;;;3.67;;
14080;SDS011;7116;52.152;5.392;2023-04-24T10:14:41;7.45;;;3.30;;
14080;SDS011;7116;52.152;5.392;2023-04-24T10:17:06;8.47;;;3.10;;
14080;SDS011;7116;52.152;5.392;2023-04-24T10:19:32;11.23;;;3.05;;
14080;SDS011;7116;52.152;5.392;2023-04-24T10:21:58;9.00;;;3.87;;
14080;SDS011;7116;52.152;5.392;2023-04-24T10:24:24;10.85;;;3.60;;
14080;SDS011;7116;52.152;5.392;2023-04-24T10:26:49;8.40;;;2.93;;
14080;SDS011;7116;52.152;5.392;2023-04-24T10:29:16;8.93;;;3.07;;
14080;SDS011;7116;52.152;5.392;2023-04-24T10:31:42;6.15;;;2.40;;
14080;SDS011;7116;52.152;5.392;2023-04-24T10:34:10;7.18;;;2.80;;
14080;SDS011;7116;52.152;5.392;2023-04-24T10:36:36;7.50;;;2.20;;
14080;SDS011;7116;52.152;5.392;2023-04-24T10:39:06;8.20;;;3.23;;
14080;SDS011;7116;52.152;5.392;2023-04-24T10:41:36;5.35;;;2.30;;
14080;SDS011;7116;52.152;5.392;2023-04-24T10:44:07;4.38;;;2.67;;
14080;SDS011;7116;52.152;5.392;2023-04-24T10:46:32;5.90;;;2.35;;
14080;SDS011;7116;52.152;5.392;2023-04-24T10:48:58;7.00;;;2.57;;
14080;SDS011;7116;52.152;5.392;2023-04-24T10:51:24;3.97;;;2.50;;
14080;SDS011;7116;52.152;5.392;2023-04-24T10:53:52;7.13;;;2.38;;
14080;SDS011;7116;52.152;5.392;2023-04-24T10:56:17;5.28;;;2.50;;
14080;SDS011;7116;52.152;5.392;2023-04-24T10:58:44;4.83;;;2.40;;
14080;SDS011;7116;52.152;5.392;2023-04-24T11:01:10;5.80;;;2.65;;
14080;SDS011;7116;52.152;5.392;2023-04-24T11:03:50;4.90;;;2.50;;
14080;SDS011;7116;52.152;5.392;2023-04-24T11:06:15;7.65;;;2.33;;
14080;SDS011;7116;52.152;5.392;2023-04-24T11:08:44;5.70;;;2.43;;
14080;SDS011;7116;52.152;5.392;2023-04-24T11:16:29;4.82;;;2.05;;
14080;SDS011;7116;52.152;5.392;2023-04-24T11:19:02;4.28;;;2.40;;
14080;SDS011;7116;52.152;5.392;2023-04-24T11:21:31;6.93;;;2.30;;
14080;SDS011;7116;52.152;5.392;2023-04-24T11:23:57;6.33;;;3.37;;
14080;SDS011;7116;52.152;5.392;2023-04-24T11:26:22;6.23;;;2.87;;
14080;SDS011;7116;52.152;5.392;2023-04-24T11:28:50;7.78;;;2.70;;
14080;SDS011;7116;52.152;5.392;2023-04-24T11:34:19;6.03;;;2.75;;
14080;SDS011;7116;52.152;5.392;2023-04-24T11:36:45;7.20;;;2.70;;
14080;SDS011;7116;52.152;5.392;2023-04-24T11:39:11;4.72;;;2.78;;
14080;SDS011;7116;52.152;5.392;2023-04-24T11:41:39;3.55;;;2.00;;
14080;SDS011;7116;52.152;5.392;2023-04-24T11:44:05;6.07;;;2.70;;
14080;SDS011;7116;52.152;5.392;2023-04-24T11:46:31;3.83;;;1.92;;
14080;SDS011;7116;52.152;5.392;2023-04-24T11:48:57;3.95;;;2.80;;
14080;SDS011;7116;52.152;5.392;2023-04-24T11:51:23;3.37;;;2.23;;
14080;SDS011;7116;52.152;5.392;2023-04-24T11:53:54;4.13;;;2.00;;
14080;SDS011;7116;52.152;5.392;2023-04-24T11:56:23;2.88;;;2.20;;
14080;SDS011;7116;52.152;5.392;2023-04-24T11:58:48;3.15;;;2.20;;
14080;SDS011;7116;52.152;5.392;2023-04-24T12:01:14;6.13;;;2.13;;
14080;SDS011;7116;52.152;5.392;2023-04-24T12:03:40;3.90;;;2.07;;
14080;SDS011;7116;52.152;5.392;2023-04-24T12:06:08;3.90;;;2.20;;
14080;SDS011;7116;52.152;5.392;2023-04-24T12:08:33;3.92;;;2.47;;
14080;SDS011;7116;52.152;5.392;2023-04-24T12:11:02;3.10;;;2.00;;
14080;SDS011;7116;52.152;5.392;2023-04-24T12:13:28;7.03;;;2.55;;
14080;SDS011;7116;52.152;5.392;2023-04-24T12:15:53;4.30;;;2.57;;
14080;SDS011;7116;52.152;5.392;2023-04-24T12:18:21;3.03;;;2.30;;
14080;SDS011;7116;52.152;5.392;2023-04-24T12:20:47;5.90;;;2.67;;
14080;SDS011;7116;52.152;5.392;2023-04-24T12:23:12;6.63;;;2.83;;
14080;SDS011;7116;52.152;5.392;2023-04-24T12:25:38;5.03;;;2.40;;
14080;SDS011;7116;52.152;5.392;2023-04-24T12:30:29;9.07;;;3.08;;
14080;SDS011;7116;52.152;5.392;2023-04-24T12:32:56;6.23;;;2.70;;
14080;SDS011;7116;52.152;5.392;2023-04-24T12:35:22;3.55;;;2.60;;
14080;SDS011;7116;52.152;5.392;2023-04-24T12:37:48;6.32;;;2.65;;
14080;SDS011;7116;52.152;5.392;2023-04-24T12:40:13;8.30;;;2.90;;
14080;SDS011;7116;52.152;5.392;2023-04-24T12:42:46;5.88;;;2.80;;
14080;SDS011;7116;52.152;5.392;2023-04-24T12:45:12;4.80;;;2.58;;
14080;SDS011;7116;52.152;5.392;2023-04-24T12:47:38;8.83;;;3.13;;
14080;SDS011;7116;52.152;5.392;2023-04-24T12:50:04;5.68;;;2.70;;
14080;SDS011;7116;52.152;5.392;2023-04-24T12:52:31;7.47;;;3.00;;
14080;SDS011;7116;52.152;5.392;2023-04-24T12:54:57;8.53;;;3.13;;
14080;SDS011;7116;52.152;5.392;2023-04-24T12:57:23;10.45;;;3.28;;
14080;SDS011;7116;52.152;5.392;2023-04-24T12:59:48;7.22;;;2.72;;
14080;SDS011;7116;52.152;5.392;2023-04-24T13:02:14;11.07;;;3.20;;
14080;SDS011;7116;52.152;5.392;2023-04-24T13:04:42;8.27;;;3.15;;
14080;SDS011;7116;52.152;5.392;2023-04-24T13:07:07;6.20;;;2.83;;
14080;SDS011;7116;52.152;5.392;2023-04-24T13:09:35;9.23;;;3.80;;
14080;SDS011;7116;52.152;5.392;2023-04-24T13:12:00;7.78;;;2.95;;
14080;SDS011;7116;52.152;5.392;2023-04-24T13:14:26;13.17;;;3.20;;
14080;SDS011;7116;52.152;5.392;2023-04-24T13:16:51;10.70;;;3.70;;
14080;SDS011;7116;52.152;5.392;2023-04-24T13:19:17;10.27;;;3.47;;
14080;SDS011;7116;52.152;5.392;2023-04-24T13:21:42;16.42;;;3.40;;
14080;SDS011;7116;52.152;5.392;2023-04-24T13:24:08;7.73;;;3.70;;
14080;SDS011;7116;52.152;5.392;2023-04-24T13:26:34;14.43;;;4.18;;
14080;SDS011;7116;52.152;5.392;2023-04-24T13:28:59;9.03;;;3.70;;
14080;SDS011;7116;52.152;5.392;2023-04-24T13:31:25;11.10;;;3.97;;
14080;SDS011;7116;52.152;5.392;2023-04-24T13:33:53;9.70;;;3.60;;
14080;SDS011;7116;52.152;5.392;2023-04-24T13:36:19;8.82;;;3.65;;
14080;SDS011;7116;52.152;5.392;2023-04-24T13:38:44;8.67;;;3.43;;
14080;SDS011;7116;52.152;5.392;2023-04-24T13:41:09;18.07;;;3.17;;
14080;SDS011;7116;52.152;5.392;2023-04-24T13:43:38;7.80;;;3.40;;
14080;SDS011;7116;52.152;5.392;2023-04-24T13:46:06;14.43;;;3.43;;
14080;SDS011;7116;52.152;5.392;2023-04-24T13:48:31;11.30;;;3.27;;
14080;SDS011;7116;52.152;5.392;2023-04-24T13:50:57;9.23;;;3.47;;
14080;SDS011;7116;52.152;5.392;2023-04-24T13:53:22;11.93;;;3.00;;
14080;SDS011;7116;52.152;5.392;2023-04-24T13:55:47;9.43;;;3.40;;
14080;SDS011;7116;52.152;5.392;2023-04-24T13:58:12;10.00;;;3.47;;
14080;SDS011;7116;52.152;5.392;2023-04-24T14:00:37;9.23;;;3.43;;
14080;SDS011;7116;52.152;5.392;2023-04-24T14:03:03;8.87;;;3.63;;
14080;SDS011;7116;52.152;5.392;2023-04-24T14:05:28;12.52;;;3.70;;
14080;SDS011;7116;52.152;5.392;2023-04-24T14:07:53;10.50;;;4.57;;
14080;SDS011;7116;52.152;5.392;2023-04-24T14:10:19;11.93;;;3.67;;
14080;SDS011;7116;52.152;5.392;2023-04-24T14:12:46;10.67;;;3.50;;
14080;SDS011;7116;52.152;5.392;2023-04-24T14:15:12;14.43;;;4.00;;
14080;SDS011;7116;52.152;5.392;2023-04-24T14:17:40;12.93;;;3.20;;
14080;SDS011;7116;52.152;5.392;2023-04-24T14:20:05;17.20;;;3.65;;
14080;SDS011;7116;52.152;5.392;2023-04-24T14:22:31;8.63;;;3.97;;
14080;SDS011;7116;52.152;5.392;2023-04-24T14:24:57;8.20;;;3.27;;
14080;SDS011;7116;52.152;5.392;2023-04-24T14:27:22;10.93;;;3.80;;
14080;SDS011;7116;52.152;5.392;2023-04-24T14:29:48;13.57;;;3.50;;
14080;SDS011;7116;52.152;5.392;2023-04-24T14:32:13;9.23;;;3.83;;
14080;SDS011;7116;52.152;5.392;2023-04-24T14:34:40;16.08;;;4.80;;
14080;SDS011;7116;52.152;5.392;2023-04-24T14:37:05;9.77;;;3.53;;
14080;SDS011;7116;52.152;5.392;2023-04-24T14:39:30;10.40;;;3.73;;
14080;SDS011;7116;52.152;5.392;2023-04-24T14:41:55;7.93;;;3.53;;
14080;SDS011;7116;52.152;5.392;2023-04-24T14:44:21;9.95;;;3.40;;
14080;SDS011;7116;52.152;5.392;2023-04-24T14:46:49;13.90;;;3.73;;
14080;SDS011;7116;52.152;5.392;2023-04-24T14:49:14;14.65;;;3.67;;
14080;SDS011;7116;52.152;5.392;2023-04-24T14:51:40;14.97;;;3.80;;
14080;SDS011;7116;52.152;5.392;2023-04-24T14:54:05;11.43;;;3.93;;
14080;SDS011;7116;52.152;5.392;2023-04-24T14:56:31;10.30;;;4.00;;
14080;SDS011;7116;52.152;5.392;2023-04-24T14:58:56;10.67;;;4.50;;
14080;SDS011;7116;52.152;5.392;2023-04-24T15:01:21;8.73;;;3.87;;
14080;SDS011;7116;52.152;5.392;2023-04-24T15:03:55;9.85;;;3.97;;
14080;SDS011;7116;52.152;5.392;2023-04-24T15:06:20;14.30;;;4.75;;
14080;SDS011;7116;52.152;5.392;2023-04-24T15:08:45;10.63;;;4.10;;
14080;SDS011;7116;52.152;5.392;2023-04-24T15:11:11;11.70;;;4.50;;
14080;SDS011;7116;52.152;5.392;2023-04-24T15:13:36;8.40;;;3.80;;
14080;SDS011;7116;52.152;5.392;2023-04-24T15:16:01;11.63;;;3.80;;
14080;SDS011;7116;52.152;5.392;2023-04-24T15:18:29;8.30;;;3.30;;
14080;SDS011;7116;52.152;5.392;2023-04-24T15:20:55;12.35;;;4.10;;
14080;SDS011;7116;52.152;5.392;2023-04-24T15:23:22;8.23;;;4.00;;
14080;SDS011;7116;52.152;5.392;2023-04-24T15:25:48;9.48;;;3.88;;
14080;SDS011;7116;52.152;5.392;2023-04-24T15:37:25;12.38;;;3.97;;